Time;durP1;ratioP1;P1;durP2;ratioP2;P2;SDS_P1;SDS_P2;PMS_P1;PMS_P2;Temp;Humidity;BMP_temperature;BMP_pressure;BME280_temperature;BME280_humidity;BME280_pressure;Samples;Min_cycle;Max_cycle;Signal;HPM_P1;HPM_P2
2023/03/21 00:00:14;;;;;;;;;8.00;7.25;;;;;;;;5104311;27;62056;-77
2023/03/21 00:02:40;;;;;;;;;11.00;7.50;;;;;;;;5103346;27;64150;-77
2023/03/21 00:05:05;;;;;;;;;10.50;9.25;;;;;;;;5103430;27;61767;-77
2023/03/21 00:07:30;;;;;;;;;10.50;8.50;;;;;;;;5103150;27;61822;-77
2023/03/21 00:09:56;;;;;;;;;12.75;7.75;;;;;;;;5104937;27;61828;-77
2023/03/21 00:12:21;;;;;;;;;8.50;8.50;;;;;;;;5104454;27;62952;-77
2023/03/21 00:14:46;;;;;;;;;9.75;7.00;;;;;;;;5103756;27;61947;-77
2023/03/21 00:17:12;;;;;;;;;7.00;7.00;;;;;;;;5103761;27;61988;-77
2023/03/21 00:19:40;;;;;;;;;8.00;6.50;;;;;;;;5103580;27;61743;-77
2023/03/21 00:22:05;;;;;;;;;9.00;6.75;;;;;;;;5103505;27;61929;-77
2023/03/21 00:24:30;;;;;;;;;12.00;6.00;;;;;;;;5103102;27;61961;-77
2023/03/21 00:26:55;;;;;;;;;8.75;6.25;;;;;;;;5103633;27;61845;-76
2023/03/21 00:29:21;;;;;;;;;11.00;8.50;;;;;;;;5103198;27;61797;-77
2023/03/21 00:31:46;;;;;;;;;5.50;4.75;;;;;;;;5104014;27;61960;-77
2023/03/21 00:34:11;;;;;;;;;7.00;6.00;;;;;;;;5104925;27;61790;-77
2023/03/21 00:36:37;;;;;;;;;8.75;6.00;;;;;;;;5104178;27;61965;-77
2023/03/21 00:39:03;;;;;;;;;7.25;5.50;;;;;;;;5103227;27;61817;-77
2023/03/21 00:41:29;;;;;;;;;5.25;5.00;;;;;;;;5102663;27;63401;-77
2023/03/21 00:43:54;;;;;;;;;7.75;6.00;;;;;;;;5102968;27;61874;-78
2023/03/21 00:46:19;;;;;;;;;9.75;5.25;;;;;;;;5104724;27;62039;-78
2023/03/21 00:48:45;;;;;;;;;10.50;4.75;;;;;;;;5104474;27;61736;-78
2023/03/21 00:51:14;;;;;;;;;10.50;5.00;;;;;;;;5102012;27;63168;-78
2023/03/21 00:53:39;;;;;;;;;6.25;5.00;;;;;;;;5102649;27;61873;-78
2023/03/21 00:56:05;;;;;;;;;7.25;6.50;;;;;;;;5101997;27;61875;-78
2023/03/21 00:58:30;;;;;;;;;4.25;4.25;;;;;;;;5101738;27;61771;-78
2023/03/21 01:00:56;;;;;;;;;7.25;6.25;;;;;;;;5102820;27;61895;-78
2023/03/21 01:03:25;;;;;;;;;7.00;5.75;;;;;;;;5103198;27;61874;-78
2023/03/21 01:06:03;;;;;;;;;8.00;6.25;;;;;;;;5102596;27;61841;-78
2023/03/21 01:08:29;;;;;;;;;7.75;6.00;;;;;;;;5102670;27;61810;-78
2023/03/21 01:10:55;;;;;;;;;7.00;5.50;;;;;;;;5103192;27;63027;-78
2023/03/21 01:13:23;;;;;;;;;5.75;4.50;;;;;;;;5103959;27;61814;-78
2023/03/21 01:15:53;;;;;;;;;6.00;5.00;;;;;;;;5102972;27;61897;-78
2023/03/21 01:18:20;;;;;;;;;4.25;4.00;;;;;;;;5102728;27;61885;-78
2023/03/21 01:20:47;;;;;;;;;5.75;4.50;;;;;;;;5101362;27;64417;-78
2023/03/21 01:23:13;;;;;;;;;7.75;4.00;;;;;;;;5101739;27;61930;-78
2023/03/21 01:25:38;;;;;;;;;7.75;6.25;;;;;;;;5104017;27;62063;-78
2023/03/21 01:28:03;;;;;;;;;6.25;6.25;;;;;;;;5103956;27;62119;-78
2023/03/21 01:30:29;;;;;;;;;5.00;5.00;;;;;;;;5101458;27;63231;-78
2023/03/21 01:32:54;;;;;;;;;4.75;4.00;;;;;;;;5102031;27;61821;-78
2023/03/21 01:35:19;;;;;;;;;7.50;4.00;;;;;;;;5103397;27;61780;-78
2023/03/21 01:37:44;;;;;;;;;3.25;3.00;;;;;;;;5102572;27;61618;-78
2023/03/21 01:40:15;;;;;;;;;4.50;4.50;;;;;;;;5102928;27;61891;-78
2023/03/21 01:42:40;;;;;;;;;6.00;3.50;;;;;;;;5103851;27;61893;-77
2023/03/21 01:45:25;;;;;;;;;4.00;4.00;;;;;;;;5102304;27;61957;-78
2023/03/21 01:47:51;;;;;;;;;4.25;4.25;;;;;;;;5103814;27;61903;-78
2023/03/21 01:50:20;;;;;;;;;8.75;3.00;;;;;;;;5102348;27;62972;-78
2023/03/21 01:52:48;;;;;;;;;5.25;5.00;;;;;;;;5103335;27;61723;-79
2023/03/21 01:55:14;;;;;;;;;3.75;3.00;;;;;;;;5103724;27;61943;-78
2023/03/21 01:57:52;;;;;;;;;3.75;3.00;;;;;;;;5103570;27;62187;-78
2023/03/21 02:00:19;;;;;;;;;5.25;3.50;;;;;;;;5102283;27;62111;-78
2023/03/21 02:02:50;;;;;;;;;5.50;3.50;;;;;;;;5103431;27;61790;-78
2023/03/21 02:05:37;;;;;;;;;5.25;3.50;;;;;;;;5101625;27;61800;-78
2023/03/21 02:08:02;;;;;;;;;5.75;3.00;;;;;;;;5101658;27;61976;-78
2023/03/21 02:10:29;;;;;;;;;5.75;3.00;;;;;;;;5101281;27;63306;-78
2023/03/21 02:12:57;;;;;;;;;3.00;2.00;;;;;;;;5103409;27;61876;-78
2023/03/21 02:15:25;;;;;;;;;6.25;4.00;;;;;;;;5103522;27;61801;-78
2023/03/21 02:17:57;;;;;;;;;3.25;3.25;;;;;;;;5102908;27;61945;-78
2023/03/21 02:20:51;;;;;;;;;4.25;3.00;;;;;;;;5102438;27;62946;-78
2023/03/21 02:23:28;;;;;;;;;5.50;3.25;;;;;;;;5101546;27;61905;-78
2023/03/21 02:26:06;;;;;;;;;3.50;2.50;;;;;;;;5101705;27;61993;-78
2023/03/21 02:28:34;;;;;;;;;3.50;3.50;;;;;;;;5103414;27;61965;-78
2023/03/21 02:31:05;;;;;;;;;2.75;2.00;;;;;;;;5102118;27;62024;-78
2023/03/21 02:33:56;;;;;;;;;8.00;4.00;;;;;;;;5102737;27;61878;-78
2023/03/21 02:36:25;;;;;;;;;3.50;2.50;;;;;;;;5101683;27;61883;-78
2023/03/21 02:39:07;;;;;;;;;4.25;4.00;;;;;;;;5101300;27;61798;-78
2023/03/21 02:41:37;;;;;;;;;3.25;3.00;;;;;;;;5100987;27;64716;-78
2023/03/21 02:44:05;;;;;;;;;3.00;3.00;;;;;;;;5102752;27;61695;-78
2023/03/21 02:46:36;;;;;;;;;3.50;2.75;;;;;;;;5101409;27;61946;-79
2023/03/21 02:49:08;;;;;;;;;6.00;3.00;;;;;;;;5101102;27;62195;-78
2023/03/21 02:51:34;;;;;;;;;3.75;3.75;;;;;;;;5102226;27;61885;-78
2023/03/21 02:54:02;;;;;;;;;4.25;2.00;;;;;;;;5099464;27;61994;-78
2023/03/21 02:56:30;;;;;;;;;4.00;4.00;;;;;;;;5080825;28;61809;-78
2023/03/21 02:58:55;;;;;;;;;4.00;3.75;;;;;;;;5080461;28;61684;-78
2023/03/21 03:01:21;;;;;;;;;1.00;1.00;;;;;;;;5080240;28;63497;-78
2023/03/21 03:03:46;;;;;;;;;2.00;2.00;;;;;;;;5080262;28;61778;-78
2023/03/21 03:06:20;;;;;;;;;3.00;2.25;;;;;;;;5080879;28;62045;-78
2023/03/21 03:08:51;;;;;;;;;2.75;2.75;;;;;;;;5080455;28;61818;-79
2023/03/21 03:11:27;;;;;;;;;8.50;2.50;;;;;;;;5091166;27;62668;-78
2023/03/21 03:14:01;;;;;;;;;3.25;3.25;;;;;;;;5102542;27;62003;-78
2023/03/21 03:16:46;;;;;;;;;3.00;3.00;;;;;;;;5100565;27;62036;-78
2023/03/21 03:19:29;;;;;;;;;5.75;2.00;;;;;;;;5102748;27;61922;-78
2023/03/21 03:21:59;;;;;;;;;2.25;1.50;;;;;;;;5103700;27;62981;-78
2023/03/21 03:24:41;;;;;;;;;4.00;2.75;;;;;;;;5105588;27;61706;-78
2023/03/21 03:27:09;;;;;;;;;4.25;2.00;;;;;;;;5106106;27;62088;-78
2023/03/21 03:29:37;;;;;;;;;2.00;2.00;;;;;;;;5105640;27;61897;-79
2023/03/21 03:32:06;;;;;;;;;2.00;1.00;;;;;;;;5103076;27;63587;-79
2023/03/21 03:34:38;;;;;;;;;2.00;2.00;;;;;;;;5105426;27;61881;-78
2023/03/21 03:37:04;;;;;;;;;1.75;1.75;;;;;;;;5104059;27;61785;-78
2023/03/21 03:39:36;;;;;;;;;2.75;2.75;;;;;;;;5104276;27;61738;-78
2023/03/21 03:42:06;;;;;;;;;3.00;2.00;;;;;;;;5105028;27;62034;-78
2023/03/21 03:44:32;;;;;;;;;6.00;2.00;;;;;;;;5103767;27;61829;-78
2023/03/21 03:47:00;;;;;;;;;1.00;1.00;;;;;;;;5103975;27;61940;-79
2023/03/21 03:49:28;;;;;;;;;2.50;2.50;;;;;;;;5105806;27;61756;-79
2023/03/21 03:52:23;;;;;;;;;2.00;2.00;;;;;;;;5104839;27;61830;-78
2023/03/21 03:54:50;;;;;;;;;3.00;2.75;;;;;;;;5077454;27;62050;-78
2023/03/21 03:57:15;;;;;;;;;2.00;1.00;;;;;;;;5085285;28;61886;-78
2023/03/21 03:59:41;;;;;;;;;2.00;2.00;;;;;;;;5082411;28;61884;-78
2023/03/21 04:02:07;;;;;;;;;1.00;1.00;;;;;;;;5082861;28;63695;-78
2023/03/21 04:04:33;;;;;;;;;3.50;2.00;;;;;;;;5083232;28;61857;-78
2023/03/21 04:06:58;;;;;;;;;2.00;2.00;;;;;;;;5083203;28;61869;-78
2023/03/21 04:09:24;;;;;;;;;5.00;2.00;;;;;;;;5085063;28;61832;-78
2023/03/21 04:11:49;;;;;;;;;4.25;2.00;;;;;;;;5083675;28;62027;-78
2023/03/21 04:14:15;;;;;;;;;3.75;1.00;;;;;;;;5084442;28;61740;-78
2023/03/21 04:16:41;;;;;;;;;2.75;2.75;;;;;;;;5083055;28;61775;-78
2023/03/21 04:19:06;;;;;;;;;3.50;3.00;;;;;;;;5084645;28;61863;-78
2023/03/21 04:21:31;;;;;;;;;3.00;2.00;;;;;;;;5082317;28;63014;-78
2023/03/21 04:23:57;;;;;;;;;6.00;2.75;;;;;;;;5084467;27;61936;-78
2023/03/21 04:26:23;;;;;;;;;3.25;2.00;;;;;;;;5103932;27;62032;-78
2023/03/21 04:28:49;;;;;;;;;3.75;3.00;;;;;;;;5102722;27;61982;-78
2023/03/21 04:31:16;;;;;;;;;1.00;1.00;;;;;;;;5104076;27;61901;-78
2023/03/21 04:33:41;;;;;;;;;2.75;1.25;;;;;;;;5104838;27;61896;-78
2023/03/21 04:36:08;;;;;;;;;3.50;2.50;;;;;;;;5103166;27;61734;-78
2023/03/21 04:38:34;;;;;;;;;4.00;2.25;;;;;;;;5103310;27;61981;-78
2023/03/21 04:41:00;;;;;;;;;3.25;1.75;;;;;;;;5103858;27;61784;-78
2023/03/21 04:43:25;;;;;;;;;2.50;2.50;;;;;;;;5102980;27;61854;-78
2023/03/21 04:45:50;;;;;;;;;3.25;2.00;;;;;;;;5104732;27;61956;-78
2023/03/21 04:48:18;;;;;;;;;2.50;2.00;;;;;;;;5103092;27;61747;-78
2023/03/21 04:50:43;;;;;;;;;3.25;2.00;;;;;;;;5104033;27;61913;-78
2023/03/21 04:53:09;;;;;;;;;3.25;2.50;;;;;;;;5104077;27;61715;-78
2023/03/21 04:55:35;;;;;;;;;2.00;2.00;;;;;;;;5104530;27;61956;-78
2023/03/21 04:58:01;;;;;;;;;1.50;1.50;;;;;;;;5102891;27;61852;-78
2023/03/21 05:00:26;;;;;;;;;2.75;1.75;;;;;;;;5101779;27;64276;-78
2023/03/21 05:02:51;;;;;;;;;2.50;1.25;;;;;;;;5104325;27;62007;-78
2023/03/21 05:05:17;;;;;;;;;5.25;3.50;;;;;;;;5103168;27;61850;-78
2023/03/21 05:07:42;;;;;;;;;2.75;2.00;;;;;;;;5104105;27;62100;-78
2023/03/21 05:10:09;;;;;;;;;2.00;2.00;;;;;;;;5102487;27;63282;-78
2023/03/21 05:12:34;;;;;;;;;1.25;1.25;;;;;;;;5103700;27;61905;-78
2023/03/21 05:14:59;;;;;;;;;3.00;2.00;;;;;;;;5104085;27;62250;-78
2023/03/21 05:17:27;;;;;;;;;4.50;3.00;;;;;;;;5102624;27;61827;-78
2023/03/21 05:19:55;;;;;;;;;2.25;2.25;;;;;;;;5102112;27;63668;-78
2023/03/21 05:22:21;;;;;;;;;4.00;2.50;;;;;;;;5103253;27;61827;-78
2023/03/21 05:24:49;;;;;;;;;4.00;2.25;;;;;;;;5102534;27;61770;-78
2023/03/21 05:27:32;;;;;;;;;3.00;3.00;;;;;;;;5102239;27;62206;-78
2023/03/21 05:29:58;;;;;;;;;3.00;3.00;;;;;;;;5101457;27;64577;-78
2023/03/21 05:32:24;;;;;;;;;2.75;2.00;;;;;;;;5103513;27;61745;-78
2023/03/21 05:34:49;;;;;;;;;2.50;2.25;;;;;;;;5102353;27;61836;-78
2023/03/21 05:37:14;;;;;;;;;4.50;2.00;;;;;;;;5103769;27;61905;-78
2023/03/21 05:39:40;;;;;;;;;4.25;2.75;;;;;;;;5102638;27;61928;-78
2023/03/21 05:42:05;;;;;;;;;3.25;3.25;;;;;;;;5101802;27;61876;-78
2023/03/21 05:44:30;;;;;;;;;1.75;1.75;;;;;;;;5101865;27;61973;-78
2023/03/21 05:46:56;;;;;;;;;2.00;2.00;;;;;;;;5103707;27;61669;-78
2023/03/21 05:49:21;;;;;;;;;4.50;1.00;;;;;;;;5101843;27;65021;-78
2023/03/21 05:51:47;;;;;;;;;2.50;2.50;;;;;;;;5101996;27;61711;-78
2023/03/21 05:54:15;;;;;;;;;5.25;2.00;;;;;;;;5101741;27;62161;-78
2023/03/21 05:56:40;;;;;;;;;2.00;2.00;;;;;;;;5103209;27;62003;-78
2023/03/21 05:59:06;;;;;;;;;3.25;2.00;;;;;;;;5101012;27;63504;-78
2023/03/21 06:01:31;;;;;;;;;3.50;2.25;;;;;;;;5103399;27;61886;-78
2023/03/21 06:03:56;;;;;;;;;2.00;2.00;;;;;;;;5101873;27;61816;-78
2023/03/21 06:06:22;;;;;;;;;2.50;2.00;;;;;;;;5102192;27;61805;-81
2023/03/21 06:08:47;;;;;;;;;5.00;4.00;;;;;;;;5102178;27;62208;-83
2023/03/21 06:11:23;;;;;;;;;4.75;2.50;;;;;;;;5102477;27;62025;-81
2023/03/21 06:13:51;;;;;;;;;3.75;2.00;;;;;;;;5085004;27;62211;-82
2023/03/21 06:16:16;;;;;;;;;4.00;2.25;;;;;;;;5102214;27;62171;-81
2023/03/21 06:18:42;;;;;;;;;4.50;3.00;;;;;;;;5100801;27;63518;-82
2023/03/21 06:21:11;;;;;;;;;4.25;2.25;;;;;;;;5103183;27;62155;-80
2023/03/21 06:23:38;;;;;;;;;2.00;2.00;;;;;;;;5101951;27;62076;-79
2023/03/21 06:26:03;;;;;;;;;3.00;3.00;;;;;;;;5101304;27;61835;-81
2023/03/21 06:28:29;;;;;;;;;3.75;3.00;;;;;;;;5101457;27;63704;-79
2023/03/21 06:30:54;;;;;;;;;2.25;2.00;;;;;;;;5102185;27;62100;-82
2023/03/21 06:33:19;;;;;;;;;3.50;2.00;;;;;;;;5101989;27;61812;-80
2023/03/21 06:35:49;;;;;;;;;3.25;3.25;;;;;;;;5100436;27;61879;-83
2023/03/21 06:38:15;;;;;;;;;4.25;2.75;;;;;;;;5099912;27;62052;-83
2023/03/21 06:40:40;;;;;;;;;4.75;4.25;;;;;;;;5099776;27;61811;-80
2023/03/21 06:43:08;;;;;;;;;3.25;3.25;;;;;;;;5098661;27;62023;-83
2023/03/21 06:45:34;;;;;;;;;2.25;2.25;;;;;;;;5097901;27;62055;-83
2023/03/21 06:47:59;;;;;;;;;4.50;4.00;;;;;;;;5099329;27;64574;-84
2023/03/21 06:50:52;;;;;;;;;3.75;3.75;;;;;;;;5100055;27;61891;-84
2023/03/21 06:53:19;;;;;;;;;3.50;3.50;;;;;;;;5097223;27;62122;-82
2023/03/21 06:55:49;;;;;;;;;6.00;3.25;;;;;;;;5100466;27;61760;-83
2023/03/21 06:58:14;;;;;;;;;8.25;3.50;;;;;;;;5103757;27;64536;-84
2023/03/21 07:00:39;;;;;;;;;3.00;2.75;;;;;;;;5092448;27;61948;-83
2023/03/21 07:03:04;;;;;;;;;3.00;3.00;;;;;;;;5084259;28;62259;-83
2023/03/21 07:05:30;;;;;;;;;4.50;3.00;;;;;;;;5084619;28;61883;-83
2023/03/21 07:08:00;;;;;;;;;3.00;2.00;;;;;;;;5083846;28;63773;-83
2023/03/21 07:10:26;;;;;;;;;4.75;4.75;;;;;;;;5085965;27;61872;-83
2023/03/21 07:12:52;;;;;;;;;3.75;3.00;;;;;;;;5084104;28;61716;-83
2023/03/21 07:15:17;;;;;;;;;4.00;4.00;;;;;;;;5084287;28;61935;-83
2023/03/21 07:17:42;;;;;;;;;4.25;3.25;;;;;;;;5083254;28;63510;-82
2023/03/21 07:20:08;;;;;;;;;4.00;3.75;;;;;;;;5084178;28;61998;-82
2023/03/21 07:22:34;;;;;;;;;6.50;4.00;;;;;;;;5083264;28;62128;-83
2023/03/21 07:24:59;;;;;;;;;5.25;3.00;;;;;;;;5084358;28;61877;-83
2023/03/21 07:27:25;;;;;;;;;5.50;3.00;;;;;;;;5083774;28;64731;-83
2023/03/21 07:29:50;;;;;;;;;4.25;4.25;;;;;;;;5084907;28;62125;-83
2023/03/21 07:32:15;;;;;;;;;5.00;4.00;;;;;;;;5085230;27;62026;-84
2023/03/21 07:34:41;;;;;;;;;10.00;5.50;;;;;;;;5083989;28;62010;-83
2023/03/21 07:37:06;;;;;;;;;3.25;3.25;;;;;;;;5097922;27;62133;-78
2023/03/21 07:39:32;;;;;;;;;8.25;4.00;;;;;;;;5103716;27;62092;-76
2023/03/21 07:41:57;;;;;;;;;6.00;4.25;;;;;;;;5103831;27;61798;-79
2023/03/21 07:44:22;;;;;;;;;5.25;4.25;;;;;;;;5092626;27;61904;-81
2023/03/21 07:46:48;;;;;;;;;4.25;4.25;;;;;;;;5101167;27;63919;-80
2023/03/21 07:49:13;;;;;;;;;8.25;6.00;;;;;;;;5103517;27;62267;-80
2023/03/21 07:51:38;;;;;;;;;8.50;4.75;;;;;;;;5104638;27;62019;-80
2023/03/21 07:54:04;;;;;;;;;6.25;4.75;;;;;;;;5102991;27;62331;-80
2023/03/21 07:56:29;;;;;;;;;9.50;5.25;;;;;;;;5082994;28;63359;-82
2023/03/21 07:58:55;;;;;;;;;11.75;3.75;;;;;;;;5089185;27;61787;-83
2023/03/21 08:01:20;;;;;;;;;4.50;4.25;;;;;;;;5103951;27;61790;-83
2023/03/21 08:03:46;;;;;;;;;6.75;4.00;;;;;;;;5105248;27;61888;-84
2023/03/21 08:06:12;;;;;;;;;6.00;4.00;;;;;;;;5101924;27;64815;-84
2023/03/21 08:08:37;;;;;;;;;7.50;4.75;;;;;;;;5103360;27;61956;-84
2023/03/21 08:11:03;;;;;;;;;5.25;4.00;;;;;;;;5104845;27;62177;-83
2023/03/21 08:13:28;;;;;;;;;3.25;3.25;;;;;;;;5103175;27;61831;-83
2023/03/21 08:15:54;;;;;;;;;8.25;5.75;;;;;;;;5103176;27;62938;-84
2023/03/21 08:18:19;;;;;;;;;4.50;4.50;;;;;;;;5103474;27;61747;-84
2023/03/21 08:20:44;;;;;;;;;3.75;3.75;;;;;;;;5103699;27;61915;-84
2023/03/21 08:23:10;;;;;;;;;4.75;4.00;;;;;;;;5103466;27;62169;-84
2023/03/21 08:25:35;;;;;;;;;7.00;5.75;;;;;;;;5104721;27;62995;-84
2023/03/21 08:28:00;;;;;;;;;9.75;4.75;;;;;;;;5103902;27;61770;-84
2023/03/21 08:30:27;;;;;;;;;6.00;5.25;;;;;;;;5104601;27;62158;-83
2023/03/21 08:32:56;;;;;;;;;7.25;5.00;;;;;;;;5103854;27;61938;-84
2023/03/21 08:35:21;;;;;;;;;4.25;4.00;;;;;;;;5102472;27;64468;-84
2023/03/21 08:37:47;;;;;;;;;9.50;4.50;;;;;;;;5104113;27;61888;-83
2023/03/21 08:40:14;;;;;;;;;6.00;5.50;;;;;;;;5103557;27;62130;-84
2023/03/21 08:42:40;;;;;;;;;5.25;3.00;;;;;;;;5103450;27;61735;-83
2023/03/21 08:45:06;;;;;;;;;6.75;5.25;;;;;;;;5102757;27;64218;-84
2023/03/21 08:47:31;;;;;;;;;9.50;4.75;;;;;;;;5103234;27;62184;-84
2023/03/21 08:49:59;;;;;;;;;6.00;5.00;;;;;;;;5103114;27;61897;-84
2023/03/21 08:52:27;;;;;;;;;8.75;5.00;;;;;;;;5104488;27;61765;-84
2023/03/21 08:54:55;;;;;;;;;4.00;3.50;;;;;;;;5093479;27;64516;-84
2023/03/21 08:57:20;;;;;;;;;2.00;2.00;;;;;;;;5084008;28;61797;-83
2023/03/21 08:59:46;;;;;;;;;4.50;3.50;;;;;;;;5082035;28;61754;-84
2023/03/21 09:02:17;;;;;;;;;3.50;3.25;;;;;;;;5082851;28;61891;-83
2023/03/21 09:04:43;;;;;;;;;9.50;4.00;;;;;;;;5081711;28;64648;-83
2023/03/21 09:07:11;;;;;;;;;3.50;2.00;;;;;;;;5082360;28;61923;-84
2023/03/21 09:09:37;;;;;;;;;6.00;4.50;;;;;;;;5082296;28;61933;-82
2023/03/21 09:12:05;;;;;;;;;3.00;2.75;;;;;;;;5082552;28;62370;-82
2023/03/21 09:14:31;;;;;;;;;4.00;3.00;;;;;;;;5090133;27;63741;-83
2023/03/21 09:16:57;;;;;;;;;3.00;3.00;;;;;;;;5084829;27;61877;-84
2023/03/21 09:19:23;;;;;;;;;2.00;2.00;;;;;;;;5080934;28;61902;-83
2023/03/21 09:21:48;;;;;;;;;4.25;2.00;;;;;;;;5082092;28;62084;-83
2023/03/21 09:24:16;;;;;;;;;4.75;2.00;;;;;;;;5081524;28;63573;-83
2023/03/21 09:26:42;;;;;;;;;4.00;3.00;;;;;;;;5082354;28;61968;-83
2023/03/21 09:29:08;;;;;;;;;1.25;1.25;;;;;;;;5082773;27;62219;-83
2023/03/21 09:31:34;;;;;;;;;3.50;3.50;;;;;;;;5082078;28;61866;-84
2023/03/21 09:33:59;;;;;;;;;2.00;2.00;;;;;;;;5080789;28;63792;-83
2023/03/21 09:36:26;;;;;;;;;5.50;2.25;;;;;;;;5083529;27;61700;-83
2023/03/21 09:38:51;;;;;;;;;4.75;3.00;;;;;;;;5081941;28;61854;-83
2023/03/21 09:41:25;;;;;;;;;1.75;1.75;;;;;;;;5082096;28;61736;-83
2023/03/21 09:43:56;;;;;;;;;5.75;3.75;;;;;;;;5083009;27;61880;-83
2023/03/21 09:46:28;;;;;;;;;3.00;3.00;;;;;;;;5081391;28;61767;-83
2023/03/21 09:49:06;;;;;;;;;4.00;3.00;;;;;;;;5097590;27;61842;-83
2023/03/21 09:51:45;;;;;;;;;3.00;3.00;;;;;;;;5103804;27;61799;-84
2023/03/21 09:54:36;;;;;;;;;3.25;3.25;;;;;;;;5099586;27;61823;-84
2023/03/21 09:57:22;;;;;;;;;2.50;2.50;;;;;;;;5078654;28;61895;-83
2023/03/21 09:59:49;;;;;;;;;3.50;2.25;;;;;;;;5070191;28;62038;-83
2023/03/21 10:02:15;;;;;;;;;4.00;4.00;;;;;;;;5082682;28;61861;-83
2023/03/21 10:04:45;;;;;;;;;3.75;3.75;;;;;;;;5080974;28;64610;-84
2023/03/21 10:07:16;;;;;;;;;3.50;2.00;;;;;;;;5082832;27;61874;-83
2023/03/21 10:09:45;;;;;;;;;3.75;2.75;;;;;;;;5081705;28;61775;-84
2023/03/21 10:12:21;;;;;;;;;3.25;2.00;;;;;;;;5081382;28;61825;-84
2023/03/21 10:14:48;;;;;;;;;3.00;2.00;;;;;;;;5094013;27;63901;-84
2023/03/21 10:17:32;;;;;;;;;3.50;2.00;;;;;;;;5080463;28;62309;-83
2023/03/21 10:20:09;;;;;;;;;3.00;3.00;;;;;;;;5082656;28;62231;-83
2023/03/21 10:22:35;;;;;;;;;2.00;2.00;;;;;;;;5097907;27;61817;-84
2023/03/21 10:25:00;;;;;;;;;4.00;3.00;;;;;;;;5100917;27;64950;-84
2023/03/21 10:27:26;;;;;;;;;4.00;3.00;;;;;;;;5102154;27;61770;-83
2023/03/21 10:29:52;;;;;;;;;5.00;2.50;;;;;;;;5101093;27;61700;-83
2023/03/21 10:32:17;;;;;;;;;5.25;2.50;;;;;;;;5103114;27;62009;-83
2023/03/21 10:34:54;;;;;;;;;2.00;2.00;;;;;;;;5102763;27;61942;-83
2023/03/21 10:37:20;;;;;;;;;5.25;2.50;;;;;;;;5101489;27;62955;-83
2023/03/21 10:39:47;;;;;;;;;2.50;2.00;;;;;;;;5103010;27;61992;-83
2023/03/21 10:42:23;;;;;;;;;3.00;2.75;;;;;;;;5101985;27;61915;-83
2023/03/21 10:44:50;;;;;;;;;3.00;3.00;;;;;;;;5101084;27;63303;-83
2023/03/21 10:47:19;;;;;;;;;4.00;3.00;;;;;;;;5099443;27;61895;-83
2023/03/21 10:49:46;;;;;;;;;4.25;1.75;;;;;;;;5095920;27;61854;-83
2023/03/21 10:52:13;;;;;;;;;2.25;2.25;;;;;;;;5102821;27;62010;-83
2023/03/21 10:54:39;;;;;;;;;4.00;4.00;;;;;;;;5100566;27;63671;-83
2023/03/21 10:57:07;;;;;;;;;2.00;2.00;;;;;;;;5101306;27;61895;-83
2023/03/21 10:59:42;;;;;;;;;0.50;0.50;;;;;;;;5101058;27;62224;-83
2023/03/21 11:02:18;;;;;;;;;4.00;2.00;;;;;;;;5100635;27;61733;-84
2023/03/21 11:04:45;;;;;;;;;4.00;3.00;;;;;;;;5102092;27;62234;-80
2023/03/21 11:07:13;;;;;;;;;2.75;2.50;;;;;;;;5102145;27;62112;-79
2023/03/21 11:09:45;;;;;;;;;2.75;2.75;;;;;;;;5100849;27;61919;-79
2023/03/21 11:12:28;;;;;;;;;4.00;2.75;;;;;;;;5102571;27;61775;-80
2023/03/21 11:14:54;;;;;;;;;5.00;3.00;;;;;;;;5092001;27;61807;-80
2023/03/21 11:17:21;;;;;;;;;23.00;18.25;;;;;;;;5100033;27;62178;-80
2023/03/21 11:19:53;;;;;;;;;6.75;2.50;;;;;;;;5100690;27;61897;-80
2023/03/21 11:22:23;;;;;;;;;2.75;2.75;;;;;;;;5099979;27;62125;-80
2023/03/21 11:24:50;;;;;;;;;3.25;3.25;;;;;;;;5097503;27;64003;-80
2023/03/21 11:27:16;;;;;;;;;3.75;3.75;;;;;;;;5099900;27;62211;-81
2023/03/21 11:29:46;;;;;;;;;5.75;3.00;;;;;;;;5099877;27;61814;-80
2023/03/21 11:32:11;;;;;;;;;7.50;3.00;;;;;;;;5102503;27;61746;-80
2023/03/21 11:34:43;;;;;;;;;4.50;3.50;;;;;;;;5100537;27;63747;-80
2023/03/21 11:37:20;;;;;;;;;4.50;4.00;;;;;;;;5101159;27;61766;-80
2023/03/21 11:39:45;;;;;;;;;3.25;3.00;;;;;;;;5100602;27;61900;-80
2023/03/21 11:42:30;;;;;;;;;3.00;3.00;;;;;;;;5102483;27;62160;-80
2023/03/21 11:45:09;;;;;;;;;6.00;4.75;;;;;;;;5102503;27;64725;-80
2023/03/21 11:47:35;;;;;;;;;2.00;2.00;;;;;;;;5104238;27;61954;-80
2023/03/21 11:50:00;;;;;;;;;4.00;2.00;;;;;;;;5104302;27;61936;-80
2023/03/21 11:52:40;;;;;;;;;5.75;4.75;;;;;;;;5103844;27;62079;-81
2023/03/21 11:55:05;;;;;;;;;3.00;2.00;;;;;;;;5092989;27;63874;-80
2023/03/21 11:57:37;;;;;;;;;3.00;3.00;;;;;;;;5100770;27;62068;-80
2023/03/21 12:00:08;;;;;;;;;4.50;3.50;;;;;;;;5082846;28;62017;-80
2023/03/21 12:02:53;;;;;;;;;3.00;3.00;;;;;;;;5100536;27;62003;-81
2023/03/21 12:05:26;;;;;;;;;3.00;2.25;;;;;;;;5103820;27;64179;-81
2023/03/21 12:08:03;;;;;;;;;1.50;1.50;;;;;;;;5102850;27;62127;-80
2023/03/21 12:10:38;;;;;;;;;1.50;1.00;;;;;;;;5103762;27;61935;-84
2023/03/21 12:13:09;;;;;;;;;2.00;1.00;;;;;;;;5104617;27;61935;-83
2023/03/21 12:15:53;;;;;;;;;4.75;4.00;;;;;;;;5099561;27;63764;-82
2023/03/21 12:18:42;;;;;;;;;3.00;2.25;;;;;;;;5084262;27;61701;-80
2023/03/21 12:21:14;;;;;;;;;1.75;1.00;;;;;;;;5061863;28;62341;-81
2023/03/21 12:23:44;;;;;;;;;1.25;1.25;;;;;;;;5081224;28;62021;-81
2023/03/21 12:26:26;;;;;;;;;3.25;2.75;;;;;;;;5064112;28;63080;-79
2023/03/21 12:29:12;;;;;;;;;6.00;5.50;;;;;;;;5080524;28;61867;-78
2023/03/21 12:31:41;;;;;;;;;3.75;3.00;;;;;;;;5081520;28;61791;-79
2023/03/21 12:34:12;;;;;;;;;3.00;2.25;;;;;;;;5064558;28;62086;-83
2023/03/21 12:36:56;;;;;;;;;5.50;5.00;;;;;;;;5080767;28;62086;-83
2023/03/21 12:39:29;;;;;;;;;6.25;3.25;;;;;;;;5063520;28;62030;-83
2023/03/21 12:42:13;;;;;;;;;6.00;3.00;;;;;;;;5080552;27;62388;-83
2023/03/21 12:44:44;;;;;;;;;4.75;3.75;;;;;;;;5064913;28;61867;-83
2023/03/21 12:47:12;;;;;;;;;5.00;3.75;;;;;;;;5081083;28;61918;-84
2023/03/21 12:49:40;;;;;;;;;6.00;2.00;;;;;;;;5081969;28;62193;-83
2023/03/21 12:52:11;;;;;;;;;7.00;4.50;;;;;;;;5064157;28;61932;-84
2023/03/21 12:54:45;;;;;;;;;2.50;2.50;;;;;;;;5063955;28;62424;-83
2023/03/21 12:57:22;;;;;;;;;3.00;3.00;;;;;;;;5065259;27;63700;-84
2023/03/21 12:59:59;;;;;;;;;7.00;5.25;;;;;;;;5103920;27;61870;-84
2023/03/21 13:02:30;;;;;;;;;1.00;1.00;;;;;;;;5102536;27;61908;-83
2023/03/21 13:04:59;;;;;;;;;6.00;4.75;;;;;;;;5104029;27;62113;-84
2023/03/21 13:07:25;;;;;;;;;3.00;3.00;;;;;;;;5103063;27;61790;-83
2023/03/21 13:09:53;;;;;;;;;4.25;3.00;;;;;;;;5103525;27;61814;-83
2023/03/21 13:12:42;;;;;;;;;3.00;2.00;;;;;;;;5102313;27;61920;-83
2023/03/21 13:15:18;;;;;;;;;8.00;3.00;;;;;;;;5102475;27;61691;-83
2023/03/21 13:17:47;;;;;;;;;6.00;3.00;;;;;;;;5103786;27;61903;-84
2023/03/21 13:20:21;;;;;;;;;3.00;3.00;;;;;;;;5103420;27;61861;-83
2023/03/21 13:22:46;;;;;;;;;3.00;2.25;;;;;;;;5101534;27;62078;-83
2023/03/21 13:25:17;;;;;;;;;3.25;2.00;;;;;;;;5102009;27;61980;-83
2023/03/21 13:27:46;;;;;;;;;4.25;2.75;;;;;;;;5103140;27;62090;-83
2023/03/21 13:30:14;;;;;;;;;4.00;2.25;;;;;;;;5102063;27;62110;-82
2023/03/21 13:32:44;;;;;;;;;4.00;3.00;;;;;;;;5103478;27;61881;-83
2023/03/21 13:35:20;;;;;;;;;4.33;2.67;;;;;;;;5103014;27;61950;-83
2023/03/21 13:37:51;;;;;;;;;2.50;2.50;;;;;;;;5101740;27;63472;-82
2023/03/21 13:40:25;;;;;;;;;3.75;2.75;;;;;;;;5101847;27;61807;-83
2023/03/21 13:42:52;;;;;;;;;2.25;2.00;;;;;;;;5102466;27;61904;-83
2023/03/21 13:45:44;;;;;;;;;2.33;2.33;;;;;;;;5102751;27;61722;-82
2023/03/21 13:48:24;;;;;;;;;3.00;2.00;;;;;;;;5101948;27;64665;-82
2023/03/21 13:50:59;;;;;;;;;3.00;2.00;;;;;;;;5103804;27;61837;-83
2023/03/21 13:53:29;;;;;;;;;3.00;2.00;;;;;;;;5101919;27;62050;-82
2023/03/21 13:56:08;;;;;;;;;2.00;2.00;;;;;;;;5085917;27;61896;-83
2023/03/21 13:58:37;;;;;;;;;4.00;3.00;;;;;;;;5098024;27;63723;-82
2023/03/21 14:01:12;;;;;;;;;2.67;1.33;;;;;;;;5098674;27;62044;-83
2023/03/21 14:03:38;;;;;;;;;1.33;1.33;;;;;;;;5098522;27;62049;-83
2023/03/21 14:06:04;;;;;;;;;7.67;2.00;;;;;;;;5082924;28;62126;-83
2023/03/21 14:08:31;;;;;;;;;1.00;0.33;;;;;;;;5080466;28;63513;-82
2023/03/21 14:10:59;;;;;;;;;0.00;0.00;;;;;;;;5087532;27;61869;-82
2023/03/21 14:13:25;;;;;;;;;1.00;1.00;;;;;;;;5102151;27;61829;-83
2023/03/21 14:16:00;;;;;;;;;1.00;1.00;;;;;;;;5103508;27;61861;-83
2023/03/21 14:18:26;;;;;;;;;0.00;0.00;;;;;;;;5101185;27;64808;-83
2023/03/21 14:20:53;;;;;;;;;0.00;0.00;;;;;;;;5103368;27;62257;-83
2023/03/21 14:23:19;;;;;;;;;0.00;0.00;;;;;;;;5101039;27;62004;-83
2023/03/21 14:25:46;;;;;;;;;0.00;0.00;;;;;;;;5102191;27;61866;-83
2023/03/21 14:28:32;;;;;;;;;1.00;1.00;;;;;;;;5101107;27;63216;-83
2023/03/21 14:30:58;;;;;;;;;0.00;0.00;;;;;;;;5100215;27;62047;-83
2023/03/21 14:33:27;;;;;;;;;1.33;1.33;;;;;;;;5101746;27;61794;-83
2023/03/21 14:35:55;;;;;;;;;0.67;0.67;;;;;;;;5103622;27;61835;-83
2023/03/21 14:38:25;;;;;;;;;1.00;0.00;;;;;;;;5099804;27;64487;-82
2023/03/21 14:40:52;;;;;;;;;0.67;0.67;;;;;;;;5098829;27;62034;-83
2023/03/21 14:43:19;;;;;;;;;1.00;1.00;;;;;;;;5100305;27;62099;-83
2023/03/21 14:45:46;;;;;;;;;0.00;0.00;;;;;;;;5100519;27;62047;-83
2023/03/21 14:48:13;;;;;;;;;1.00;1.00;;;;;;;;5099155;27;65001;-83
2023/03/21 14:50:42;;;;;;;;;0.67;0.33;;;;;;;;5100627;27;61950;-83
2023/03/21 14:53:13;;;;;;;;;0.00;0.00;;;;;;;;5099121;27;62035;-83